createdAt,value
2018-11-12T00:00:32.352Z,4.30
2018-11-12T00:01:32.929Z,4.20
2018-11-12T00:02:32.834Z,3.30
2018-11-12T00:03:33.449Z,3.80
2018-11-12T00:04:33.620Z,4.10
2018-11-12T00:05:33.915Z,3.90
2018-11-12T00:06:34.177Z,4.30
2018-11-12T00:07:34.348Z,3.70
2018-11-12T00:08:34.521Z,3.90
2018-11-12T00:09:34.736Z,4.30
2018-11-12T00:10:34.936Z,3.90
2018-11-12T00:11:35.132Z,4.60
2018-11-12T00:12:35.354Z,4.00
2018-11-12T00:13:35.656Z,4.00
2018-11-12T00:14:35.878Z,4.30
2018-11-12T00:15:36.007Z,4.40
2018-11-12T00:16:36.136Z,3.90
2018-11-12T00:17:36.338Z,3.70
2018-11-12T00:18:36.450Z,4.20
2018-11-12T00:19:36.616Z,4.10
2018-11-12T00:20:36.815Z,4.10
2018-11-12T00:21:36.951Z,3.90
2018-11-12T00:22:37.093Z,3.90
2018-11-12T00:23:37.244Z,3.90
2018-11-12T00:24:37.390Z,4.40
2018-11-12T00:25:37.490Z,4.10
2018-11-12T00:26:37.583Z,4.00
2018-11-12T00:27:37.682Z,4.40
2018-11-12T00:28:38.164Z,3.70
2018-11-12T00:29:38.262Z,4.30
2018-11-12T00:30:38.353Z,4.00
2018-11-12T00:31:38.452Z,3.80
2018-11-12T00:32:38.546Z,3.90
2018-11-12T00:33:38.365Z,4.00
2018-11-12T00:34:39.146Z,5.10
2018-11-12T00:35:39.095Z,4.80
2018-11-12T00:36:39.513Z,4.90
2018-11-12T00:37:39.808Z,5.30
2018-11-12T00:38:39.973Z,5.50
2018-11-12T00:39:40.286Z,5.60
2018-11-12T00:41:40.586Z,5.00
2018-11-12T00:42:40.637Z,5.50
2018-11-12T00:43:41.040Z,5.10
2018-11-12T00:44:41.429Z,5.50
2018-11-12T00:45:42.009Z,5.00
2018-11-12T00:46:41.800Z,5.40
2018-11-12T00:47:42.080Z,5.80
2018-11-12T00:48:42.603Z,6.70
2018-11-12T00:50:43.067Z,5.80
2018-11-12T00:51:43.351Z,6.00
2018-11-12T00:52:43.909Z,6.50
2018-11-12T00:53:43.732Z,6.60
2018-11-12T00:54:44.285Z,5.40
2018-11-12T00:55:44.058Z,5.80
2018-11-12T00:56:44.354Z,6.10
2018-11-12T00:57:44.657Z,5.60
2018-11-12T00:58:45.028Z,6.00
2018-11-12T00:59:45.359Z,5.80
2018-11-12T01:00:45.770Z,5.70
2018-11-12T01:01:46.082Z,6.00
2018-11-12T01:02:46.371Z,5.70
2018-11-12T01:03:46.783Z,6.40
2018-11-12T01:04:47.102Z,5.90
2018-11-12T01:05:47.091Z,6.20
2018-11-12T01:06:47.626Z,6.10
2018-11-12T01:07:47.433Z,5.60
2018-11-12T01:08:47.946Z,5.90
2018-11-12T01:10:48.573Z,5.50
2018-11-12T01:11:48.699Z,6.10
2018-11-12T01:12:48.859Z,5.10
2018-11-12T01:13:49.078Z,5.90
2018-11-12T01:14:49.293Z,5.90
2018-11-12T01:15:49.432Z,5.90
2018-11-12T01:16:49.594Z,5.80
2018-11-12T01:17:49.740Z,6.10
2018-11-12T01:18:49.918Z,5.80
2018-11-12T01:19:50.086Z,6.10
2018-11-12T01:20:50.250Z,5.70
2018-11-12T01:21:50.452Z,5.40
2018-11-12T01:22:50.611Z,5.80
2018-11-12T01:23:50.779Z,5.40
2018-11-12T01:24:50.905Z,5.30
2018-11-12T01:25:51.033Z,5.10
2018-11-12T01:26:51.162Z,6.10
2018-11-12T01:27:51.368Z,5.80
2018-11-12T01:28:51.496Z,5.50
2018-11-12T01:29:51.622Z,5.50
2018-11-12T01:30:51.741Z,5.80
2018-11-12T01:31:52.103Z,5.60
2018-11-12T01:32:52.197Z,5.50
2018-11-12T01:33:52.305Z,5.50
2018-11-12T01:34:52.404Z,6.00
2018-11-12T01:35:52.494Z,5.90
2018-11-12T01:36:52.581Z,5.90
2018-11-12T01:37:52.682Z,6.00
2018-11-12T01:38:52.773Z,5.80
2018-11-12T01:39:52.858Z,5.40
2018-11-12T01:40:52.958Z,5.60
2018-11-12T01:41:53.076Z,6.00
2018-11-12T01:42:53.140Z,6.10
2018-11-12T01:43:53.229Z,6.00
2018-11-12T01:44:53.350Z,5.40
2018-11-12T01:45:53.467Z,5.80
2018-11-12T01:46:53.558Z,4.90
2018-11-12T01:47:53.640Z,5.50
2018-11-12T01:48:53.730Z,5.30
2018-11-12T01:49:53.826Z,5.60
2018-11-12T01:50:53.855Z,5.60
2018-11-12T01:51:53.832Z,5.80
2018-11-12T01:52:54.278Z,5.80
2018-11-12T01:53:54.587Z,5.30
2018-11-12T01:54:54.875Z,5.50
2018-11-12T01:55:55.252Z,4.70
2018-11-12T01:56:55.525Z,4.70
2018-11-12T01:57:55.805Z,4.90
2018-11-12T01:58:56.081Z,4.90
2018-11-12T01:59:56.375Z,4.40
2018-11-12T02:00:56.682Z,5.00
2018-11-12T02:01:56.971Z,5.10
2018-11-12T02:02:57.256Z,5.10
2018-11-12T02:03:57.534Z,4.80
2018-11-12T02:04:57.989Z,5.10
2018-11-12T02:06:58.781Z,5.10
2018-11-12T02:07:58.584Z,5.10
2018-11-12T02:08:58.953Z,6.10
2018-11-12T02:09:59.158Z,5.40
2018-11-12T02:10:59.677Z,5.10
2018-11-12T02:11:59.485Z,4.60
2018-11-12T02:12:59.766Z,4.90
2018-11-12T02:14:00.127Z,5.00
2018-11-12T02:15:00.422Z,5.20
2018-11-12T02:16:00.738Z,4.70
2018-11-12T02:17:01.053Z,4.70
2018-11-12T02:18:01.328Z,5.00
2018-11-12T02:19:01.743Z,4.90
2018-11-12T02:20:02.029Z,4.90
2018-11-12T02:21:02.326Z,5.10
2018-11-12T02:22:02.368Z,4.90
2018-11-12T02:23:02.517Z,5.00
2018-11-12T02:24:02.812Z,5.00
2018-11-12T02:25:03.239Z,5.00
2018-11-12T02:26:03.595Z,5.00
2018-11-12T02:27:03.652Z,5.40
2018-11-12T02:28:03.700Z,5.10
2018-11-12T02:29:03.799Z,5.20
2018-11-12T02:30:03.991Z,4.90
2018-11-12T02:31:04.030Z,5.20
2018-11-12T02:32:04.158Z,5.30
2018-11-12T02:33:04.435Z,4.90
2018-11-12T02:34:04.544Z,4.20
2018-11-12T02:35:04.680Z,5.00
2018-11-12T02:36:04.882Z,5.00
2018-11-12T02:37:05.052Z,5.00
2018-11-12T02:38:05.107Z,4.80
2018-11-12T02:39:05.278Z,5.20
2018-11-12T02:40:05.534Z,4.60
2018-11-12T02:41:06.014Z,4.80
2018-11-12T02:42:06.156Z,4.80
2018-11-12T02:43:06.265Z,5.20
2018-11-12T02:44:06.639Z,4.70
2018-11-12T02:45:06.884Z,5.10
2018-11-12T02:46:07.040Z,4.90
2018-11-12T02:47:07.156Z,5.00
2018-11-12T02:48:07.261Z,4.80
2018-11-12T02:49:07.394Z,5.20
2018-11-12T02:50:07.506Z,5.10
2018-11-12T02:51:07.651Z,5.40
2018-11-12T02:52:07.596Z,4.70
2018-11-12T02:53:08.212Z,4.70
2018-11-12T02:54:08.043Z,4.90
2018-11-12T02:55:08.651Z,4.40
2018-11-12T02:56:08.869Z,4.60
2018-11-12T02:57:08.963Z,4.80
2018-11-12T02:58:08.748Z,4.70
2018-11-12T02:59:09.232Z,4.40
2018-11-12T03:00:09.714Z,4.90
2018-11-12T03:01:09.939Z,5.20
2018-11-12T03:02:10.211Z,4.90
2018-11-12T03:03:10.701Z,4.90
2018-11-12T03:04:11.083Z,4.40
2018-11-12T03:05:11.386Z,5.80
2018-11-12T03:06:11.863Z,5.60
2018-11-12T03:07:12.148Z,5.30
2018-11-12T03:08:12.448Z,5.60
2018-11-12T03:09:12.722Z,5.30
2018-11-12T03:10:12.766Z,5.10
2018-11-12T03:11:12.981Z,4.90
2018-11-12T03:12:13.511Z,5.40
2018-11-12T03:13:13.317Z,5.10
2018-11-12T03:14:13.574Z,4.80
2018-11-12T03:15:14.175Z,4.70
2018-11-12T03:16:14.088Z,5.00
2018-11-12T03:17:14.444Z,5.10
2018-11-12T03:18:14.732Z,5.20
2018-11-12T03:19:15.013Z,4.60
2018-11-12T03:20:15.389Z,4.80
2018-11-12T03:21:15.256Z,5.70
2018-11-12T03:22:15.553Z,5.10
2018-11-12T03:23:15.842Z,5.70
2018-11-12T03:24:16.231Z,5.20
2018-11-12T03:25:16.521Z,5.30
2018-11-12T03:26:17.059Z,5.90
2018-11-12T03:27:17.350Z,5.30
2018-11-12T03:28:17.643Z,5.10
2018-11-12T03:29:18.010Z,6.10
2018-11-12T03:30:18.734Z,5.00
2018-11-12T03:31:19.016Z,6.10
2018-11-12T03:32:19.139Z,5.70
2018-11-12T03:33:19.262Z,6.40
2018-11-12T03:34:19.405Z,6.00
2018-11-12T03:35:19.545Z,6.00
2018-11-12T03:36:19.738Z,5.50
2018-11-12T03:37:19.939Z,6.20
2018-11-12T03:38:20.103Z,6.70
2018-11-12T03:39:20.265Z,6.70
2018-11-12T03:40:20.437Z,5.40
2018-11-12T03:41:20.723Z,5.70
2018-11-12T03:42:20.889Z,6.10
2018-11-12T03:43:20.999Z,5.20
2018-11-12T03:44:21.082Z,5.90
2018-11-12T03:45:21.189Z,6.20
2018-11-12T03:46:21.425Z,6.10
2018-11-12T03:47:21.501Z,5.80
2018-11-12T03:48:21.643Z,5.30
2018-11-12T03:49:21.741Z,5.80
2018-11-12T03:50:21.866Z,5.40
2018-11-12T03:51:22.085Z,5.40
2018-11-12T03:52:22.226Z,5.90
2018-11-12T03:53:22.323Z,5.70
2018-11-12T03:54:22.423Z,5.50
2018-11-12T03:55:22.561Z,6.30
2018-11-12T03:56:22.720Z,6.20
2018-11-12T03:57:22.790Z,5.80
2018-11-12T03:58:22.869Z,6.00
2018-11-12T03:59:22.942Z,5.50
2018-11-12T04:00:23.117Z,5.70
2018-11-12T04:01:23.469Z,6.00
2018-11-12T04:02:23.693Z,6.20
2018-11-12T04:03:23.802Z,5.70
2018-11-12T04:04:23.814Z,5.90
2018-11-12T04:05:23.895Z,6.60
2018-11-12T04:06:23.883Z,5.90
2018-11-12T04:07:24.280Z,5.60
2018-11-12T04:08:24.668Z,6.10
2018-11-12T04:09:25.010Z,6.20
2018-11-12T04:10:25.360Z,5.70
2018-11-12T04:11:25.671Z,6.20
2018-11-12T04:12:25.942Z,6.90
2018-11-12T04:13:26.271Z,6.70
2018-11-12T04:14:26.562Z,6.50
2018-11-12T04:15:26.837Z,6.80
2018-11-12T04:16:27.150Z,6.20
2018-11-12T04:17:27.430Z,5.80
2018-11-12T04:18:27.704Z,6.30
2018-11-12T04:19:27.971Z,6.60
2018-11-12T04:20:28.233Z,5.30
2018-11-12T04:21:28.528Z,5.40
2018-11-12T04:22:29.033Z,5.40
2018-11-12T04:23:28.803Z,4.90
2018-11-12T04:24:29.195Z,5.30
2018-11-12T04:25:29.478Z,6.10
2018-11-12T04:26:29.724Z,5.30
2018-11-12T04:27:30.003Z,5.30
2018-11-12T04:28:30.372Z,5.30
2018-11-12T04:29:30.685Z,5.00
2018-11-12T04:30:30.968Z,5.20
2018-11-12T04:31:31.394Z,5.40
2018-11-12T04:32:31.812Z,5.40
2018-11-12T04:33:32.226Z,5.60
2018-11-12T04:34:32.813Z,5.20
2018-11-12T04:35:32.599Z,5.90
2018-11-12T04:36:33.033Z,5.70
2018-11-12T04:37:33.667Z,5.20
2018-11-12T04:38:33.803Z,5.80
2018-11-12T04:39:33.943Z,5.50
2018-11-12T04:40:34.068Z,5.90
2018-11-12T04:41:34.197Z,5.60
2018-11-12T04:42:34.351Z,5.10
2018-11-12T04:44:34.583Z,5.80
2018-11-12T04:45:34.839Z,5.90
2018-11-12T04:46:34.887Z,4.60
2018-11-12T04:47:35.034Z,5.30
2018-11-12T04:48:35.224Z,5.80
2018-11-12T04:49:35.379Z,6.20
2018-11-12T04:50:35.522Z,5.80
2018-11-12T04:51:35.676Z,5.40
2018-11-12T04:52:35.831Z,5.70
2018-11-12T04:53:36.006Z,5.50
2018-11-12T04:54:36.062Z,5.20
2018-11-12T04:55:36.170Z,5.30
2018-11-12T04:56:36.248Z,5.60
2018-11-12T04:57:36.343Z,5.20
2018-11-12T04:58:36.829Z,5.60
2018-11-12T04:59:36.960Z,5.90
2018-11-12T05:00:37.079Z,5.80
2018-11-12T05:01:37.141Z,5.60
2018-11-12T05:02:37.253Z,5.50
2018-11-12T05:03:37.363Z,5.60
2018-11-12T05:04:37.661Z,5.60
2018-11-12T05:05:37.743Z,5.90
2018-11-12T05:06:37.823Z,6.00
2018-11-12T05:07:38.011Z,5.80
2018-11-12T05:08:38.138Z,5.40
2018-11-12T05:09:38.240Z,6.00
2018-11-12T05:10:38.346Z,5.40
2018-11-12T05:11:38.450Z,5.80
2018-11-12T05:12:38.908Z,5.80
2018-11-12T05:13:38.987Z,5.40
2018-11-12T05:14:39.282Z,5.90
2018-11-12T05:15:39.575Z,5.50
2018-11-12T05:16:39.886Z,5.70
2018-11-12T05:17:40.147Z,5.50
2018-11-12T05:18:40.552Z,5.70
2018-11-12T05:19:40.864Z,5.60
2018-11-12T05:20:41.179Z,5.60
2018-11-12T05:21:41.588Z,5.30
2018-11-12T05:22:41.878Z,5.80
2018-11-12T05:23:42.540Z,5.30
2018-11-12T05:24:42.354Z,5.60
2018-11-12T05:25:42.640Z,5.60
2018-11-12T05:26:43.047Z,5.50
2018-11-12T05:27:43.449Z,5.20
2018-11-12T05:28:43.758Z,5.90
2018-11-12T05:29:44.154Z,5.30
2018-11-12T05:30:44.442Z,5.30
2018-11-12T05:31:44.728Z,5.20
2018-11-12T05:32:45.069Z,5.80
2018-11-12T05:33:45.344Z,5.70
2018-11-12T05:34:45.692Z,5.50
2018-11-12T05:35:46.032Z,5.60
2018-11-12T05:36:46.323Z,5.60
2018-11-12T05:37:46.735Z,6.20
2018-11-12T05:38:46.996Z,6.00
2018-11-12T05:39:47.312Z,6.30
2018-11-12T05:40:47.679Z,5.70
2018-11-12T05:41:48.191Z,5.50
2018-11-12T05:42:48.202Z,5.80
2018-11-12T05:43:48.164Z,5.40
2018-11-12T05:44:48.835Z,5.90
2018-11-12T05:45:48.884Z,6.20
2018-11-12T05:46:49.028Z,5.80
2018-11-12T05:47:49.187Z,5.30
2018-11-12T05:48:49.323Z,5.50
2018-11-12T05:49:49.535Z,6.20
2018-11-12T05:50:49.680Z,5.80
2018-11-12T05:51:49.868Z,5.60
2018-11-12T05:52:50.025Z,6.00
2018-11-12T05:53:50.130Z,5.90
2018-11-12T05:54:50.274Z,6.20
2018-11-12T05:55:50.445Z,5.50
2018-11-12T05:56:50.607Z,5.90
2018-11-12T05:57:50.744Z,5.20
2018-11-12T05:58:50.885Z,5.90
2018-11-12T05:59:50.937Z,5.70
2018-11-12T06:00:51.063Z,5.90
2018-11-12T06:01:51.176Z,5.80
2018-11-12T06:02:51.261Z,5.80
2018-11-12T06:03:51.327Z,5.80
2018-11-12T06:04:51.488Z,5.90
2018-11-12T06:05:51.575Z,6.20
2018-11-12T06:06:51.683Z,6.50
2018-11-12T06:07:51.845Z,6.00
2018-11-12T06:08:51.992Z,5.50
2018-11-12T06:09:52.157Z,6.30
2018-11-12T06:10:52.267Z,5.80
2018-11-12T06:11:52.366Z,5.80
2018-11-12T06:12:52.450Z,6.50
2018-11-12T06:13:52.546Z,5.90
2018-11-12T06:14:52.642Z,5.90
2018-11-12T06:15:52.721Z,5.90
2018-11-12T06:16:52.800Z,7.30
2018-11-12T06:17:52.881Z,6.70
2018-11-12T06:18:52.973Z,6.60
2018-11-12T06:19:53.065Z,6.30
2018-11-12T06:20:53.164Z,6.50
2018-11-12T06:21:53.252Z,6.10
2018-11-12T06:23:53.374Z,7.00
2018-11-12T06:24:53.488Z,6.00
2018-11-12T06:25:53.593Z,5.90
2018-11-12T06:26:53.687Z,6.70
2018-11-12T06:27:53.781Z,6.10
2018-11-12T06:28:54.296Z,5.70
2018-11-12T06:29:54.397Z,5.70
2018-11-12T06:30:54.590Z,6.00
2018-11-12T06:31:54.364Z,6.10
2018-11-12T06:32:54.646Z,5.60
2018-11-12T06:33:54.932Z,5.70
2018-11-12T06:34:55.489Z,5.90
2018-11-12T06:35:55.279Z,5.70
2018-11-12T06:36:55.825Z,5.30
2018-11-12T06:37:56.014Z,6.40
2018-11-12T06:38:56.555Z,5.60
2018-11-12T06:39:56.832Z,6.20
2018-11-12T06:40:57.128Z,6.20
2018-11-12T06:41:57.460Z,5.80
2018-11-12T06:42:57.776Z,6.00
2018-11-12T06:43:58.062Z,6.00
2018-11-12T06:44:58.352Z,6.10
2018-11-12T06:45:58.642Z,6.20
2018-11-12T06:46:59.147Z,6.30
2018-11-12T06:47:59.026Z,6.00
2018-11-12T06:48:59.188Z,5.40
2018-11-12T06:49:59.469Z,5.50
2018-11-12T06:50:59.858Z,5.40
2018-11-12T06:52:00.143Z,5.90
2018-11-12T06:53:00.833Z,6.00
2018-11-12T06:54:01.060Z,6.10
2018-11-12T06:55:01.422Z,6.50
2018-11-12T06:56:02.165Z,5.70
2018-11-12T06:57:02.253Z,5.90
2018-11-12T06:58:02.217Z,5.70
2018-11-12T06:59:02.510Z,5.60
2018-11-12T07:00:03.174Z,6.40
2018-11-12T07:01:03.783Z,6.30
2018-11-12T07:02:03.819Z,6.30
2018-11-12T07:03:04.000Z,6.10
2018-11-12T07:04:04.174Z,5.90
2018-11-12T07:05:04.325Z,6.30
2018-11-12T07:06:04.537Z,6.10
2018-11-12T07:07:05.048Z,6.50
2018-11-12T07:08:05.077Z,5.60
2018-11-12T07:09:05.210Z,6.00
2018-11-12T07:10:05.525Z,6.00
2018-11-12T07:11:05.575Z,5.80
2018-11-12T07:12:05.737Z,6.30
2018-11-12T07:13:05.931Z,5.80
2018-11-12T07:14:05.929Z,5.60
2018-11-12T07:15:06.136Z,6.30
2018-11-12T07:16:06.641Z,6.00
2018-11-12T07:17:06.792Z,6.00
2018-11-12T07:18:06.903Z,6.00
2018-11-12T07:19:07.017Z,6.70
2018-11-12T07:20:07.123Z,6.40
2018-11-12T07:21:07.238Z,6.40
2018-11-12T07:22:07.340Z,6.00
2018-11-12T07:23:07.295Z,6.60
2018-11-12T07:24:07.879Z,7.00
2018-11-12T07:25:07.980Z,7.60
2018-11-12T07:26:08.063Z,7.20
2018-11-12T07:27:08.028Z,7.00
2018-11-12T07:28:08.624Z,6.90
2018-11-12T07:29:08.666Z,6.60
2018-11-12T07:30:08.786Z,6.90
2018-11-12T07:31:09.232Z,7.10
2018-11-12T07:32:09.064Z,6.50
2018-11-12T07:33:09.437Z,6.70
2018-11-12T07:34:09.774Z,5.90
2018-11-12T07:35:10.212Z,6.70
2018-11-12T07:36:10.171Z,7.20
2018-11-12T07:37:10.468Z,6.50
2018-11-12T07:38:10.507Z,6.40
2018-11-12T07:39:10.916Z,7.30
2018-11-12T07:40:11.501Z,6.90
2018-11-12T07:41:11.525Z,6.80
2018-11-12T07:42:11.874Z,7.50
2018-11-12T07:43:12.344Z,7.10
2018-11-12T07:44:12.126Z,7.00
2018-11-12T07:45:12.765Z,7.10
2018-11-12T07:46:12.710Z,6.50
2018-11-12T07:47:13.022Z,7.00
2018-11-12T07:48:13.373Z,7.40
2018-11-12T07:49:13.652Z,7.70
2018-11-12T07:50:14.270Z,7.70
2018-11-12T07:51:14.035Z,7.80
2018-11-12T07:52:14.298Z,6.90
2018-11-12T07:53:14.820Z,7.40
2018-11-12T07:54:14.607Z,6.60
2018-11-12T07:55:15.251Z,6.90
2018-11-12T07:56:15.093Z,7.10
2018-11-12T07:57:15.601Z,6.80
2018-11-12T07:58:15.400Z,6.80
2018-11-12T07:59:15.715Z,6.40
2018-11-12T08:00:16.343Z,6.90
2018-11-12T08:01:16.559Z,6.90
2018-11-12T08:02:16.839Z,7.30
2018-11-12T08:03:17.181Z,6.90
2018-11-12T08:04:17.393Z,6.90
2018-11-12T08:05:17.762Z,6.80
2018-11-12T08:06:18.175Z,7.20
2018-11-12T08:07:18.764Z,6.90
2018-11-12T08:08:18.912Z,6.90
2018-11-12T08:09:19.190Z,7.10
2018-11-12T08:10:19.183Z,7.70
2018-11-12T08:11:19.334Z,7.00
2018-11-12T08:12:19.476Z,6.50
2018-11-12T08:13:19.627Z,6.60
2018-11-12T08:14:19.862Z,6.80
2018-11-12T08:15:19.971Z,7.40
2018-11-12T08:16:20.127Z,7.50
2018-11-12T08:17:20.317Z,6.30
2018-11-12T08:18:20.448Z,7.00
2018-11-12T08:19:20.594Z,7.20
2018-11-12T08:20:20.817Z,8.00
2018-11-12T08:21:21.112Z,7.50
2018-11-12T08:22:21.195Z,8.60
2018-11-12T08:23:21.302Z,8.60
2018-11-12T08:24:21.597Z,8.10
2018-11-12T08:25:21.517Z,7.40
2018-11-12T08:26:21.627Z,9.60
2018-11-12T08:27:21.700Z,8.50
2018-11-12T08:28:21.552Z,8.50
2018-11-12T08:29:22.140Z,17.30
2018-11-12T08:30:22.390Z,12.50
2018-11-12T08:31:22.518Z,9.20
2018-11-12T08:32:22.611Z,11.40
2018-11-12T08:33:22.688Z,10.50
2018-11-12T08:34:22.760Z,11.60
2018-11-12T08:35:22.856Z,9.90
2018-11-12T08:36:22.986Z,12.00
2018-11-12T08:37:23.047Z,10.00
2018-11-12T08:38:23.122Z,9.50
2018-11-12T08:39:23.388Z,11.50
2018-11-12T08:40:23.439Z,9.60
2018-11-12T08:41:23.497Z,8.50
2018-11-12T08:42:23.605Z,8.90
2018-11-12T08:43:23.699Z,8.40
2018-11-12T08:44:23.790Z,9.50
2018-11-12T08:45:23.882Z,8.30
2018-11-12T08:46:23.863Z,9.40
2018-11-12T08:47:24.186Z,8.60
2018-11-12T08:48:24.512Z,8.00
2018-11-12T08:49:25.056Z,7.60
2018-11-12T08:50:25.246Z,8.30
2018-11-12T08:51:25.596Z,9.00
2018-11-12T08:52:25.880Z,8.60
2018-11-12T08:53:26.219Z,8.50
2018-11-12T08:54:26.784Z,8.50
2018-11-12T08:55:27.029Z,8.30
2018-11-12T08:56:27.009Z,8.80
2018-11-12T08:57:27.324Z,9.80
2018-11-12T08:58:27.618Z,10.50
2018-11-12T08:59:28.206Z,9.10
2018-11-12T09:00:28.474Z,11.10
2018-11-12T09:01:28.842Z,11.80
2018-11-12T09:02:29.125Z,11.10
2018-11-12T09:03:29.456Z,11.50
2018-11-12T09:04:29.738Z,10.80
2018-11-12T09:05:30.154Z,11.10
2018-11-12T09:06:30.517Z,8.50
2018-11-12T09:07:30.856Z,8.70
2018-11-12T09:08:31.198Z,9.20
2018-11-12T09:09:31.598Z,8.50
2018-11-12T09:10:31.871Z,8.40
2018-11-12T09:11:32.131Z,9.10
2018-11-12T09:12:32.626Z,8.90
2018-11-12T09:13:35.460Z,7.40
2018-11-12T09:14:33.234Z,7.50
2018-11-12T09:15:33.174Z,8.50
2018-11-12T09:16:33.770Z,8.50
2018-11-12T09:17:33.931Z,8.30
2018-11-12T09:18:34.108Z,7.80
2018-11-12T09:19:34.261Z,8.40
2018-11-12T09:20:34.423Z,8.80
2018-11-12T09:21:34.628Z,9.20
2018-11-12T09:22:34.784Z,8.10
2018-11-12T09:23:35.085Z,7.60
2018-11-12T09:24:35.257Z,8.50
2018-11-12T09:25:35.408Z,8.10
2018-11-12T09:26:35.569Z,7.70
2018-11-12T09:27:35.727Z,8.70
2018-11-12T09:28:35.875Z,8.30
2018-11-12T09:29:36.098Z,8.30
2018-11-12T09:30:36.134Z,7.30
2018-11-12T09:31:36.225Z,8.40
2018-11-12T09:32:36.378Z,8.40
2018-11-12T09:33:36.434Z,8.70
2018-11-12T09:34:36.560Z,8.80
2018-11-12T09:35:36.679Z,8.50
2018-11-12T09:36:36.882Z,8.00
2018-11-12T09:37:36.971Z,8.30
2018-11-12T09:38:37.192Z,8.40
2018-11-12T09:39:37.196Z,7.60
2018-11-12T09:40:37.331Z,8.80
2018-11-12T09:41:37.311Z,8.60
2018-11-12T09:42:37.407Z,8.30
2018-11-12T09:43:37.564Z,9.10
2018-11-12T09:44:37.639Z,8.90
2018-11-12T09:45:37.742Z,8.00
2018-11-12T09:46:37.827Z,8.30
2018-11-12T09:47:37.931Z,8.90
2018-11-12T09:48:38.002Z,8.20
2018-11-12T09:49:38.074Z,7.80
2018-11-12T09:50:38.174Z,8.50
2018-11-12T09:51:38.266Z,8.10
2018-11-12T09:52:38.363Z,8.30
2018-11-12T09:53:38.911Z,7.50
2018-11-12T09:54:39.003Z,8.30
2018-11-12T09:55:39.029Z,7.80
2018-11-12T09:56:39.001Z,8.60
2018-11-12T09:57:38.999Z,8.50
2018-11-12T09:58:39.302Z,8.60
2018-11-12T09:59:39.651Z,8.20
2018-11-12T10:00:40.205Z,7.80
2018-11-12T10:01:40.929Z,8.50
2018-11-12T10:02:41.726Z,8.30
2018-11-12T10:03:42.122Z,8.60
2018-11-12T10:04:42.756Z,8.90
2018-11-12T10:05:43.041Z,8.90
2018-11-12T10:06:42.979Z,8.50
2018-11-12T10:07:44.117Z,9.00
2018-11-12T10:08:44.500Z,8.10
2018-11-12T10:09:45.844Z,8.70
2018-11-12T10:10:44.298Z,8.20
2018-11-12T10:11:45.052Z,7.50
2018-11-12T10:12:45.660Z,7.80
2018-11-12T10:13:47.195Z,8.30
2018-11-12T10:14:46.059Z,7.60
2018-11-12T10:15:47.071Z,8.30
2018-11-12T10:16:47.265Z,8.00
2018-11-12T10:17:47.848Z,7.70
2018-11-12T10:18:45.111Z,8.70
2018-11-12T10:19:45.489Z,9.20
2018-11-12T10:20:45.716Z,8.80
2018-11-12T10:21:46.316Z,9.10
2018-11-12T10:22:46.171Z,9.50
2018-11-12T10:23:46.253Z,8.70
2018-11-12T10:24:46.516Z,8.50
2018-11-12T10:25:46.943Z,7.80
2018-11-12T10:26:47.296Z,8.20
2018-11-12T10:27:47.569Z,7.90
2018-11-12T10:28:47.764Z,8.00
2018-11-12T10:29:48.271Z,8.80
2018-11-12T10:30:48.849Z,8.40
2018-11-12T10:31:49.263Z,8.50
2018-11-12T10:32:49.622Z,10.00
2018-11-12T10:33:49.806Z,8.70
2018-11-12T10:34:49.921Z,7.70
2018-11-12T10:35:50.428Z,7.90
2018-11-12T10:36:50.579Z,8.70
2018-11-12T10:37:50.717Z,8.50
2018-11-12T10:38:50.880Z,9.20
2018-11-12T10:39:51.138Z,8.50
2018-11-12T10:40:51.259Z,8.90
2018-11-12T10:41:51.274Z,8.60
2018-11-12T10:42:51.414Z,7.80
2018-11-12T10:43:51.473Z,8.40
2018-11-12T10:44:51.608Z,8.50
2018-11-12T10:45:51.714Z,8.60
2018-11-12T10:46:51.832Z,8.40
2018-11-12T10:47:52.044Z,8.60
2018-11-12T10:48:52.027Z,8.50
2018-11-12T10:49:52.146Z,8.50
2018-11-12T10:50:56.377Z,8.40
2018-11-12T10:51:52.473Z,7.70
2018-11-12T10:52:52.533Z,8.40
2018-11-12T10:53:52.682Z,8.80
2018-11-12T10:55:04.899Z,7.80
2018-11-12T10:55:52.903Z,7.20
2018-11-12T10:56:52.849Z,7.80
2018-11-12T10:57:52.922Z,7.80
2018-11-12T10:58:53.293Z,7.50
2018-11-12T10:59:53.385Z,7.70
2018-11-12T11:00:53.777Z,8.30
2018-11-12T11:01:53.849Z,8.20
2018-11-12T11:02:53.978Z,8.40
2018-11-12T11:03:54.265Z,8.20
2018-11-12T11:04:54.678Z,7.80
2018-11-12T11:05:54.964Z,8.60
2018-11-12T11:06:55.393Z,7.30
2018-11-12T11:07:55.717Z,8.20
2018-11-12T11:08:56.000Z,7.60
2018-11-12T11:09:56.296Z,8.90
2018-11-12T11:10:56.720Z,7.70
2018-11-12T11:11:57.049Z,8.00
2018-11-12T11:12:57.339Z,8.30
2018-11-12T11:13:58.019Z,7.80
2018-11-12T11:14:58.368Z,9.10
2018-11-12T11:15:58.645Z,10.70
2018-11-12T11:16:58.932Z,7.80
2018-11-12T11:17:59.329Z,6.60
2018-11-12T11:18:59.623Z,7.00
2018-11-12T11:19:59.903Z,7.80
2018-11-12T11:21:00.246Z,7.50
2018-11-12T11:22:00.523Z,7.40
2018-11-12T11:23:00.920Z,7.40
2018-11-12T11:24:01.010Z,6.80
2018-11-12T11:25:01.298Z,7.60
2018-11-12T11:26:01.620Z,7.60
2018-11-12T11:27:02.249Z,8.10
2018-11-12T11:28:02.250Z,7.80
2018-11-12T11:29:02.465Z,7.00
2018-11-12T11:30:02.442Z,7.40
2018-11-12T11:31:02.762Z,6.50
2018-11-12T11:32:02.769Z,6.40
2018-11-12T11:33:02.843Z,6.10
2018-11-12T11:34:02.960Z,8.30
2018-11-12T11:35:02.715Z,6.80
2018-11-12T11:36:03.428Z,8.70
2018-11-12T11:37:03.513Z,8.60
2018-11-12T11:38:03.661Z,8.00
2018-11-12T11:39:03.764Z,8.10
2018-11-12T11:40:04.288Z,7.50
2018-11-12T11:41:04.352Z,6.40
2018-11-12T11:42:04.503Z,6.90
2018-11-12T11:43:04.615Z,7.40
2018-11-12T11:44:04.751Z,6.90
2018-11-12T11:45:04.896Z,7.20
2018-11-12T11:46:05.052Z,7.00
2018-11-12T11:47:05.094Z,7.10
2018-11-12T11:48:05.327Z,7.10
2018-11-12T11:49:05.257Z,7.00
2018-11-12T11:50:05.402Z,6.80
2018-11-12T11:51:05.436Z,7.60
2018-11-12T11:52:05.579Z,8.30
2018-11-12T11:53:05.733Z,7.80
2018-11-12T11:54:05.790Z,7.50
2018-11-12T11:55:05.927Z,8.70
2018-11-12T11:56:06.027Z,7.70
2018-11-12T11:57:06.174Z,7.80
2018-11-12T11:58:06.213Z,7.30
2018-11-12T11:59:06.261Z,7.30
2018-11-12T12:00:06.474Z,8.00
2018-11-12T12:01:06.837Z,7.40
2018-11-12T12:02:06.939Z,8.10
2018-11-12T12:03:07.237Z,8.40
2018-11-12T12:04:07.157Z,9.10
2018-11-12T12:05:07.278Z,9.60
2018-11-12T12:06:07.358Z,12.70
2018-11-12T12:07:07.936Z,13.10
2018-11-12T12:08:07.814Z,11.70
2018-11-12T12:09:08.472Z,11.10
2018-11-12T12:10:08.205Z,10.40
2018-11-12T12:11:08.963Z,9.50
2018-11-12T12:12:09.003Z,9.80
2018-11-12T12:13:09.247Z,9.30
2018-11-12T12:14:09.147Z,9.00
2018-11-12T12:15:09.451Z,10.10
2018-11-12T12:16:10.034Z,10.40
2018-11-12T12:17:09.873Z,8.70
2018-11-12T12:18:10.148Z,9.50
2018-11-12T12:19:10.523Z,9.80
2018-11-12T12:20:11.121Z,9.90
2018-11-12T12:21:11.254Z,9.30
2018-11-12T12:22:11.578Z,9.60
2018-11-12T12:23:11.866Z,8.80
2018-11-12T12:24:12.141Z,8.40
2018-11-12T12:25:12.560Z,8.20
2018-11-12T12:26:12.707Z,8.50
2018-11-12T12:27:12.983Z,8.30
2018-11-12T12:28:13.259Z,7.80
2018-11-12T12:29:13.738Z,7.60
2018-11-12T12:30:14.168Z,7.10
2018-11-12T12:31:14.290Z,7.00
2018-11-12T12:32:14.578Z,7.90
2018-11-12T12:33:14.865Z,7.40
2018-11-12T12:34:15.132Z,6.90
2018-11-12T12:35:15.750Z,7.00
2018-11-12T12:36:15.650Z,7.40
2018-11-12T12:37:15.976Z,7.40
2018-11-12T12:38:16.267Z,6.00
2018-11-12T12:39:16.527Z,6.30
2018-11-12T12:40:17.157Z,6.20
2018-11-12T12:41:17.025Z,6.60
2018-11-12T12:42:17.323Z,6.50
2018-11-12T12:43:17.626Z,6.20
2018-11-12T12:44:17.939Z,6.00
2018-11-12T12:45:18.686Z,5.90
2018-11-12T12:46:18.532Z,5.70
2018-11-12T12:47:18.603Z,6.50
2018-11-12T12:48:18.682Z,5.80
2018-11-12T12:49:18.848Z,6.20
2018-11-12T12:50:18.982Z,5.10
2018-11-12T12:51:19.172Z,6.10
2018-11-12T12:52:19.294Z,6.10
2018-11-12T12:53:19.418Z,5.60
2018-11-12T12:54:19.589Z,5.60
2018-11-12T12:55:19.895Z,5.90
2018-11-12T12:56:20.090Z,6.20
2018-11-12T12:57:20.130Z,5.70
2018-11-12T12:58:20.399Z,5.80
2018-11-12T12:59:20.517Z,5.50
2018-11-12T13:00:20.751Z,5.80
2018-11-12T13:01:20.818Z,5.50
2018-11-12T13:02:20.950Z,6.20
2018-11-12T13:03:20.934Z,4.70
2018-11-12T13:04:20.999Z,5.60
2018-11-12T13:05:21.088Z,5.30
2018-11-12T13:06:21.151Z,4.60
2018-11-12T13:07:21.304Z,4.90
2018-11-12T13:08:21.419Z,5.10
2018-11-12T13:09:21.492Z,5.00
2018-11-12T13:10:21.607Z,4.70
2018-11-12T13:11:21.831Z,4.30
2018-11-12T13:12:21.958Z,4.30
2018-11-12T13:13:22.077Z,4.10
2018-11-12T13:14:22.241Z,3.90
2018-11-12T13:15:22.300Z,3.70
2018-11-12T13:16:22.396Z,3.50
2018-11-12T13:17:22.471Z,3.10
2018-11-12T13:18:22.771Z,2.60
2018-11-12T13:19:22.875Z,2.90
2018-11-12T13:20:23.019Z,2.30
2018-11-12T13:21:23.189Z,2.50
2018-11-12T13:22:23.212Z,2.50
2018-11-12T13:23:23.298Z,2.60
2018-11-12T13:24:23.379Z,2.70
2018-11-12T13:25:23.487Z,2.30
2018-11-12T13:26:23.571Z,2.40